Time;durP1;ratioP1;P1;durP2;ratioP2;P2;SDS_P1;SDS_P2;PMS_P1;PMS_P2;Temp;Humidity;BMP_temperature;BMP_pressure;BME280_temperature;BME280_humidity;BME280_pressure;Samples;Min_cycle;Max_cycle;Signal;HPM_P1;HPM_P2
2021/12/15 00:00:59;;;;;;;;;;;;;;;3.68;74.70;100357.97;5030385;28;19970;-83
2021/12/15 00:03:25;;;;;;;;;;;;;;;3.74;74.31;100352.91;5047446;28;19925;-82
2021/12/15 00:05:51;;;;;;;;;;;;;;;3.72;74.41;100358.94;5047694;28;20825;-84
2021/12/15 00:08:16;;;;;;;;;;;;;;;3.90;73.98;100358.47;5047925;28;19964;-83
2021/12/15 00:10:43;;;;;;;;;;;;;;;3.62;74.47;100370.88;5035020;28;20334;-83
2021/12/15 00:13:08;;;;;;;;;;;;;;;3.62;74.83;100372.63;5031412;28;19964;-83
2021/12/15 00:15:34;;;;;;;;;;;;;;;3.70;74.72;100366.72;5027361;28;19968;-83
2021/12/15 00:17:59;;;;;;;;;;;;;;;3.78;73.85;100373.84;5027801;28;20415;-83
2021/12/15 00:20:25;;;;;;;;;;;;;;;3.78;73.69;100371.25;5026781;28;19920;-84
2021/12/15 00:22:52;;;;;;;;;;;;;;;3.91;73.54;100373.31;5027371;28;20477;-83
2021/12/15 00:25:18;;;;;;;;;;;;;;;3.78;73.85;100377.34;5026169;28;20318;-83
2021/12/15 00:27:44;;;;;;;;;;;;;;;3.69;74.19;100375.41;5027125;28;19917;-83
2021/12/15 00:30:09;;;;;;;;;;;;;;;3.78;73.86;100373.84;5033977;28;19927;-83
2021/12/15 00:32:35;;;;;;;;;;;;;;;3.72;73.45;100379.81;5046079;28;19946;-84
2021/12/15 00:35:00;;;;;;;;;;;;;;;3.79;73.39;100381.72;5027002;28;19970;-83
2021/12/15 00:37:26;;;;;;;;;;;;;;;3.87;73.33;100381.91;5026653;28;19917;-83
2021/12/15 00:39:51;;;;;;;;;;;;;;;3.65;73.90;100384.00;5026374;28;19928;-82
2021/12/15 00:42:16;;;;;;;;;;;;;;;3.63;74.25;100377.88;5026076;28;19928;-83
2021/12/15 00:44:42;;;;;;;;;;;;;;;3.76;74.34;100379.91;5027062;28;19917;-83
2021/12/15 00:47:08;;;;;;;;;;;;;;;3.79;73.88;100380.84;5026714;28;19912;-84
2021/12/15 00:49:33;;;;;;;;;;;;;;;3.63;74.23;100387.41;5027490;28;20390;-83
2021/12/15 00:51:59;;;;;;;;;;;;;;;3.59;74.27;100378.63;5026551;28;19916;-83
2021/12/15 00:54:25;;;;;;;;;;;;;;;3.59;74.77;100374.28;5026840;28;19917;-83
2021/12/15 00:56:51;;;;;;;;;;;;;;;3.76;74.18;100377.31;5034704;28;20053;-83
2021/12/15 00:59:16;;;;;;;;;;;;;;;3.81;73.48;100380.00;5045998;28;20469;-84
2021/12/15 01:01:42;;;;;;;;;;;;;;;3.79;74.10;100378.25;5033511;28;19928;-82
2021/12/15 01:04:08;;;;;;;;;;;;;;;3.62;74.16;100370.88;5026791;28;19917;-83
2021/12/15 01:06:35;;;;;;;;;;;;;;;3.72;74.30;100375.47;5026304;28;19963;-83
2021/12/15 01:09:03;;;;;;;;;;;;;;;3.86;73.11;100369.69;5027209;28;19920;-82
2021/12/15 01:19:47;;;;;;;;;;;;;;;3.68;73.91;100373.63;5026875;28;19971;-82
2021/12/15 01:20:08;;;;;;;;;;;;;;;3.93;73.27;100371.59;5026882;28;19947;-84
2021/12/15 01:22:40;;;;;;;;;;;;;;;3.86;73.08;100362.75;5028438;28;19925;-83
2021/12/15 01:25:08;;;;;;;;;;;;;;;3.91;73.58;100378.53;5029843;28;19976;-83
2021/12/15 01:27:33;;;;;;;;;;;;;;;3.91;73.01;100387.22;5031941;28;20011;-83
2021/12/15 01:29:59;;;;;;;;;;;;;;;4.20;72.53;100391.31;5035834;28;20015;-84
2021/12/15 01:32:24;;;;;;;;;;;;;;;4.11;72.35;100387.69;5030440;28;19924;-82
2021/12/15 01:34:50;;;;;;;;;;;;;;;4.15;72.58;100393.84;5029516;28;19984;-82
2021/12/15 01:37:17;;;;;;;;;;;;;;;4.25;72.13;100385.38;5030112;28;20000;-82
2021/12/15 01:39:43;;;;;;;;;;;;;;;4.27;71.51;100388.88;5037235;28;20299;-82
2021/12/15 01:42:09;;;;;;;;;;;;;;;4.14;72.41;100381.66;5042155;28;20387;-84
2021/12/15 01:47:18;;;;;;;;;;;;;;;4.13;72.98;100380.75;5031818;28;19962;-82
2021/12/15 01:49:45;;;;;;;;;;;;;;;4.11;72.58;100377.22;5042611;28;19920;-82
2021/12/15 01:52:14;;;;;;;;;;;;;;;4.05;72.90;100378.84;5028762;28;20364;-83
2021/12/15 01:54:41;;;;;;;;;;;;;;;4.01;73.73;100372.66;5029475;28;19920;-82
2021/12/15 01:57:07;;;;;;;;;;;;;;;4.09;73.05;100378.94;5029507;28;20007;-83
2021/12/15 01:59:33;;;;;;;;;;;;;;;4.12;72.79;100383.31;5031192;28;19920;-82
2021/12/15 02:01:59;;;;;;;;;;;;;;;4.10;72.17;100385.91;5030734;28;19917;-83
2021/12/15 02:04:24;;;;;;;;;;;;;;;4.10;72.73;100380.69;5028790;28;19920;-83
2021/12/15 02:06:49;;;;;;;;;;;;;;;4.32;72.08;100380.28;5029488;28;19938;-83
2021/12/15 02:09:22;;;;;;;;;;;;;;;4.28;71.92;100381.97;5045969;28;19927;-83
2021/12/15 02:11:48;;;;;;;;;;;;;;;4.09;71.74;100346.69;5033067;28;20054;-83
2021/12/15 02:14:13;;;;;;;;;;;;;;;4.24;71.79;100367.06;5049472;28;20000;-83
2021/12/15 02:16:39;;;;;;;;;;;;;;;4.22;71.69;100368.75;5048624;28;19923;-83
2021/12/15 02:19:04;;;;;;;;;;;;;;;4.09;71.99;100360.66;5048608;28;19912;-82
2021/12/15 02:21:30;;;;;;;;;;;;;;;4.20;71.73;100355.66;5043315;28;20021;-82
2021/12/15 02:23:58;;;;;;;;;;;;;;;4.14;71.56;100360.75;5048949;28;19923;-82
2021/12/15 02:26:24;;;;;;;;;;;;;;;4.21;71.05;100352.19;5047822;28;19971;-83
2021/12/15 02:28:55;;;;;;;;;;;;;;;4.17;71.35;100339.94;5043539;28;19923;-83
2021/12/15 02:39:16;;;;;;;;;;;;;;;4.11;71.68;100345.03;5045683;28;20024;-83
2021/12/15 02:41:43;;;;;;;;;;;;;;;4.04;71.67;100344.00;5046614;28;20003;-85
2021/12/15 02:44:10;;;;;;;;;;;;;;;3.99;72.21;100340.41;5038403;28;19926;-83
2021/12/15 02:46:37;;;;;;;;;;;;;;;3.92;71.79;100343.72;5028781;28;19917;-84
2021/12/15 02:49:04;;;;;;;;;;;;;;;3.84;71.58;100335.72;5028677;28;20000;-83
2021/12/15 02:51:29;;;;;;;;;;;;;;;4.04;71.72;100328.31;5028540;28;19935;-83
2021/12/15 02:53:55;;;;;;;;;;;;;;;4.10;71.51;100327.59;5028732;28;19920;-83
2021/12/15 02:56:21;;;;;;;;;;;;;;;4.02;71.65;100330.03;5028883;28;19921;-83
2021/12/15 02:58:55;;;;;;;;;;;;;;;4.00;71.18;100316.06;5028558;28;19975;-82
2021/12/15 03:01:32;;;;;;;;;;;;;;;3.85;72.09;100316.63;5045242;28;20378;-83
2021/12/15 03:04:29;;;;;;;;;;;;;;;3.94;71.62;100321.16;5048392;28;20338;-82
2021/12/15 03:07:04;;;;;;;;;;;;;;;3.81;71.59;100320.00;5048233;28;19928;-82
2021/12/15 03:17:06;;;;;;;;;;;;;;;4.06;71.17;100307.47;5028473;28;20395;-83
2021/12/15 03:19:32;;;;;;;;;;;;;;;4.15;71.20;100309.41;5027940;28;20050;-83
2021/12/15 03:21:57;;;;;;;;;;;;;;;4.18;70.61;100317.31;5028637;28;19917;-84
2021/12/15 03:24:24;;;;;;;;;;;;;;;4.05;70.90;100322.28;5046807;28;19928;-82
2021/12/15 03:27:00;;;;;;;;;;;;;;;4.07;70.69;100324.91;5047864;28;19912;-82
2021/12/15 03:37:45;;;;;;;;;;;;;;;3.92;71.46;100323.75;5047921;28;19987;-82
2021/12/15 03:40:17;;;;;;;;;;;;;;;3.82;71.82;100318.28;5046756;28;19959;-83
2021/12/15 03:42:48;;;;;;;;;;;;;;;3.92;71.36;100317.63;5033324;28;20481;-82
2021/12/15 03:45:25;;;;;;;;;;;;;;;3.88;71.16;100315.81;5046905;28;19960;-82
2021/12/15 03:47:50;;;;;;;;;;;;;;;3.86;71.41;100310.56;5041351;28;19917;-83
2021/12/15 03:50:18;;;;;;;;;;;;;;;3.66;71.52;100289.22;5032342;28;19925;-84
2021/12/15 03:52:48;;;;;;;;;;;;;;;3.75;71.49;100314.63;5032144;28;20375;-83
2021/12/15 03:55:14;;;;;;;;;;;;;;;3.81;71.44;100313.91;5046486;28;19982;-81
2021/12/15 03:57:39;;;;;;;;;;;;;;;3.93;70.58;100316.78;5046468;28;19933;-82
2021/12/15 04:00:06;;;;;;;;;;;;;;;3.97;70.32;100309.88;5046708;28;19921;-84
2021/12/15 04:02:33;;;;;;;;;;;;;;;4.01;70.29;100316.94;5027894;28;19917;-85
2021/12/15 04:04:58;;;;;;;;;;;;;;;4.06;70.44;100321.44;5029424;28;19917;-86
2021/12/15 04:07:24;;;;;;;;;;;;;;;4.01;70.39;100327.38;5040838;28;20418;-88
2021/12/15 04:09:51;;;;;;;;;;;;;;;4.12;69.41;100316.34;5033916;28;20397;-87
2021/12/15 04:12:16;;;;;;;;;;;;;;;4.11;69.29;100335.47;5044617;28;20386;-91
2021/12/15 04:14:45;;;;;;;;;;;;;;;4.22;68.24;100340.91;5039472;28;19928;-85
2021/12/15 04:17:26;;;;;;;;;;;;;;;4.35;68.61;100349.00;5027815;28;19921;-86
2021/12/15 04:19:56;;;;;;;;;;;;;;;4.26;69.10;100363.63;5028190;28;19923;-86
2021/12/15 04:22:22;;;;;;;;;;;;;;;4.27;68.51;100356.69;5028348;28;20394;-87
2021/12/15 04:24:48;;;;;;;;;;;;;;;4.27;68.42;100374.97;5027728;28;19913;-85
2021/12/15 04:27:13;;;;;;;;;;;;;;;4.30;68.59;100370.66;5027703;28;19921;-87
2021/12/15 04:29:39;;;;;;;;;;;;;;;4.28;68.16;100377.59;5025998;28;19921;-87
2021/12/15 04:32:12;;;;;;;;;;;;;;;4.45;67.98;100377.09;5027890;28;19916;-88
2021/12/15 04:34:38;;;;;;;;;;;;;;;4.37;68.42;100376.94;5032208;28;20375;-87
2021/12/15 04:37:03;;;;;;;;;;;;;;;4.31;68.05;100379.41;5038283;28;19960;-82
2021/12/15 04:39:28;;;;;;;;;;;;;;;4.38;68.24;100378.66;5045481;28;20513;-83
2021/12/15 04:41:55;;;;;;;;;;;;;;;4.27;68.68;100380.19;5035672;28;20445;-82
2021/12/15 04:44:22;;;;;;;;;;;;;;;4.28;67.71;100381.97;5041580;28;19917;-83
2021/12/15 04:47:01;;;;;;;;;;;;;;;4.30;68.23;100378.50;5045553;28;19974;-84
2021/12/15 04:49:39;;;;;;;;;;;;;;;4.44;68.14;100380.53;5045915;28;20020;-82
2021/12/15 04:52:05;;;;;;;;;;;;;;;4.27;68.37;100380.19;5046599;28;20000;-88
2021/12/15 04:54:30;;;;;;;;;;;;;;;4.18;68.32;100387.81;5037766;28;20051;-83
2021/12/15 04:56:56;;;;;;;;;;;;;;;4.10;68.42;100382.44;5040131;28;20002;-84
2021/12/15 04:59:21;;;;;;;;;;;;;;;4.10;69.09;100383.28;5035917;28;20379;-83
2021/12/15 05:01:46;;;;;;;;;;;;;;;4.17;68.66;100396.47;5030949;28;19917;-84
2021/12/15 05:04:13;;;;;;;;;;;;;;;4.23;68.20;100396.63;5029295;28;19920;-84
2021/12/15 05:06:39;;;;;;;;;;;;;;;4.29;68.51;100389.81;5034566;28;19921;-82
2021/12/15 05:09:04;;;;;;;;;;;;;;;4.21;68.42;100388.75;5031510;28;20798;-84
2021/12/15 05:11:30;;;;;;;;;;;;;;;4.21;68.63;100387.88;5031911;28;19929;-83
2021/12/15 05:13:55;;;;;;;;;;;;;;;4.24;68.37;100395.78;5038922;28;19917;-85
2021/12/15 05:16:21;;;;;;;;;;;;;;;4.20;68.74;100400.06;5032385;28;19976;-83
2021/12/15 05:18:46;;;;;;;;;;;;;;;4.17;68.57;100402.63;5031552;28;19921;-84
2021/12/15 05:21:12;;;;;;;;;;;;;;;4.28;68.37;100408.06;5027822;28;19917;-84
2021/12/15 05:23:43;;;;;;;;;;;;;;;4.32;67.93;100409.88;5028374;28;19913;-84
2021/12/15 05:26:09;;;;;;;;;;;;;;;4.21;68.48;100411.38;5028476;28;19944;-84
2021/12/15 05:28:35;;;;;;;;;;;;;;;4.18;68.75;100416.53;5027852;28;20377;-85
2021/12/15 05:31:00;;;;;;;;;;;;;;;4.25;68.43;100423.69;5034432;28;20007;-84
2021/12/15 05:33:26;;;;;;;;;;;;;;;4.09;68.25;100417.19;5049791;28;20425;-84
2021/12/15 05:35:52;;;;;;;;;;;;;;;4.16;68.76;100428.69;5039462;28;19971;-85
2021/12/15 05:38:18;;;;;;;;;;;;;;;4.18;68.76;100427.84;5037215;28;19946;-85
2021/12/15 05:40:44;;;;;;;;;;;;;;;4.14;68.13;100431.28;5049628;28;19916;-85
2021/12/15 05:43:09;;;;;;;;;;;;;;;4.15;68.05;100435.63;5048279;28;19923;-84
2021/12/15 05:45:37;;;;;;;;;;;;;;;4.13;68.68;100440.81;5049164;28;19924;-85
2021/12/15 05:48:03;;;;;;;;;;;;;;;4.18;68.38;100440.03;5047508;28;19917;-85
2021/12/15 05:50:30;;;;;;;;;;;;;;;4.20;67.64;100439.25;5032062;28;20775;-84
2021/12/15 05:52:56;;;;;;;;;;;;;;;4.36;67.79;100447.44;5028489;28;20303;-84
2021/12/15 05:55:22;;;;;;;;;;;;;;;4.36;68.31;100445.69;5030010;28;20004;-86
2021/12/15 05:57:48;;;;;;;;;;;;;;;4.27;68.31;100446.34;5030442;28;20043;-84
2021/12/15 06:00:15;;;;;;;;;;;;;;;4.46;68.41;100452.88;5048341;28;19940;-84
2021/12/15 06:02:41;;;;;;;;;;;;;;;4.38;68.18;100454.44;5043910;28;19920;-85
2021/12/15 06:05:08;;;;;;;;;;;;;;;4.36;68.68;100458.75;5029037;28;19924;-83
2021/12/15 06:07:33;;;;;;;;;;;;;;;4.42;68.27;100458.88;5030424;28;20012;-85
2021/12/15 06:09:58;;;;;;;;;;;;;;;4.48;67.66;100460.75;5027787;28;20347;-84
2021/12/15 06:12:24;;;;;;;;;;;;;;;4.37;68.22;100460.53;5044609;28;21535;-84
2021/12/15 06:14:49;;;;;;;;;;;;;;;4.55;68.11;100461.75;5030074;28;20425;-84
2021/12/15 06:17:15;;;;;;;;;;;;;;;4.56;67.85;100464.41;5029935;28;19917;-84
2021/12/15 06:19:40;;;;;;;;;;;;;;;4.46;67.95;100459.81;5028455;28;20015;-84
2021/12/15 06:22:06;;;;;;;;;;;;;;;4.53;68.14;100466.09;5029723;28;19939;-84
2021/12/15 06:24:32;;;;;;;;;;;;;;;4.59;67.69;100461.00;5029772;28;20418;-84
2021/12/15 06:27:03;;;;;;;;;;;;;;;4.57;67.61;100465.28;5029267;28;19952;-84
2021/12/15 06:29:29;;;;;;;;;;;;;;;4.51;67.47;100470.38;5028328;28;19917;-84
2021/12/15 06:31:55;;;;;;;;;;;;;;;4.51;68.29;100468.66;5029582;28;19939;-85
2021/12/15 06:34:20;;;;;;;;;;;;;;;4.58;67.28;100461.81;5029127;28;19967;-84
2021/12/15 06:36:46;;;;;;;;;;;;;;;4.64;67.13;100472.41;5029389;28;20193;-85
2021/12/15 06:39:11;;;;;;;;;;;;;;;4.81;66.96;100472.78;5029430;28;20006;-85
2021/12/15 06:41:36;;;;;;;;;;;;;;;4.79;66.69;100464.91;5030205;28;19913;-85
2021/12/15 06:44:02;;;;;;;;;;;;;;;4.90;66.25;100464.25;5029030;28;20423;-84
2021/12/15 06:59:55;;;;;;;;;;;;;;;4.78;66.30;100467.47;5028817;28;19917;-83
2021/12/15 07:02:22;;;;;;;;;;;;;;;4.85;65.66;100469.38;5029081;28;19975;-83
2021/12/15 07:04:48;;;;;;;;;;;;;;;4.92;66.94;100468.63;5028933;28;19913;-83
2021/12/15 07:07:13;;;;;;;;;;;;;;;4.87;66.64;100470.28;5028894;28;19917;-83
2021/12/15 07:09:39;;;;;;;;;;;;;;;5.02;66.80;100472.34;5028504;28;19917;-83
2021/12/15 07:12:05;;;;;;;;;;;;;;;5.06;66.02;100476.75;5027601;28;20564;-84
2021/12/15 07:14:31;;;;;;;;;;;;;;;5.11;65.97;100472.53;5028383;28;20371;-83
2021/12/15 07:16:58;;;;;;;;;;;;;;;5.20;66.11;100485.78;5027645;28;20387;-83
2021/12/15 07:19:34;;;;;;;;;;;;;;;5.11;66.05;100480.38;5027741;28;19913;-84
2021/12/15 07:22:14;;;;;;;;;;;;;;;4.98;65.98;100481.84;5028169;28;19917;-86
2021/12/15 07:24:39;;;;;;;;;;;;;;;5.11;66.12;100485.59;5036700;28;19913;-82
2021/12/15 07:27:08;;;;;;;;;;;;;;;5.28;65.71;100474.56;5032332;28;19990;-82
2021/12/15 07:29:33;;;;;;;;;;;;;;;5.17;65.24;100480.50;5038604;28;19919;-83
2021/12/15 07:31:59;;;;;;;;;;;;;;;5.07;65.78;100473.31;5027376;28;19917;-85
2021/12/15 07:34:25;;;;;;;;;;;;;;;5.10;65.27;100469.88;5028160;28;19916;-83
2021/12/15 07:36:51;;;;;;;;;;;;;;;5.09;65.40;100478.56;5028476;28;20363;-83
2021/12/15 07:39:16;;;;;;;;;;;;;;;5.12;65.38;100476.88;5028251;28;19963;-82
2021/12/15 07:41:52;;;;;;;;;;;;;;;5.02;65.80;100494.13;5028211;28;19913;-82
2021/12/15 07:44:18;;;;;;;;;;;;;;;5.25;65.09;100498.03;5028056;28;20361;-82
2021/12/15 07:46:45;;;;;;;;;;;;;;;5.18;65.73;100490.06;5027239;28;19920;-82
2021/12/15 07:49:10;;;;;;;;;;;;;;;5.28;65.45;100485.91;5028099;28;19920;-84
2021/12/15 07:51:36;;;;;;;;;;;;;;;5.34;65.10;100493.84;5028045;28;19921;-84
2021/12/15 07:54:02;;;;;;;;;;;;;;;5.26;65.05;100498.06;5028171;28;19913;-85
2021/12/15 07:56:27;;;;;;;;;;;;;;;5.40;64.97;100495.72;5026343;28;20442;-83
2021/12/15 07:58:53;;;;;;;;;;;;;;;5.44;64.11;100486.19;5027656;28;19913;-83
2021/12/15 08:07:24;;;;;;;;;;;;;;;5.56;64.11;100517.81;5026800;28;19928;-84
2021/12/15 08:09:50;;;;;;;;;;;;;;;5.66;64.75;100524.13;5027495;28;20291;-84
2021/12/15 08:12:16;;;;;;;;;;;;;;;5.61;64.00;100523.13;5026503;28;19966;-83
2021/12/15 08:14:41;;;;;;;;;;;;;;;5.76;64.09;100525.16;5027047;28;19921;-84
2021/12/15 08:17:07;;;;;;;;;;;;;;;5.70;63.90;100524.22;5027617;28;20280;-84
2021/12/15 08:19:32;;;;;;;;;;;;;;;5.58;63.50;100521.38;5027081;28;20355;-84
2021/12/15 08:21:57;;;;;;;;;;;;;;;5.53;64.12;100538.69;5030794;28;19920;-83
2021/12/15 08:24:23;;;;;;;;;;;;;;;5.89;63.86;100530.63;5032242;28;19921;-85
2021/12/15 08:26:48;;;;;;;;;;;;;;;6.01;63.50;100539.59;5032228;28;19975;-84
2021/12/15 08:29:14;;;;;;;;;;;;;;;5.99;63.48;100533.44;5043182;28;20326;-84
2021/12/15 08:31:39;;;;;;;;;;;;;;;5.84;62.90;100540.16;5025742;28;19967;-83
2021/12/15 08:34:07;;;;;;;;;;;;;;;5.92;63.71;100542.91;5027084;28;20032;-82
2021/12/15 08:36:33;;;;;;;;;;;;;;;5.88;63.86;100536.72;5027125;28;19960;-83
2021/12/15 08:38:58;;;;;;;;;;;;;;;5.55;63.21;100529.16;5027344;28;19952;-82
2021/12/15 08:41:26;;;;;;;;;;;;;;;5.95;63.90;100542.06;5025167;28;19928;-83
2021/12/15 08:43:51;;;;;;;;;;;;;;;6.15;62.79;100542.44;5025217;28;20374;-82
2021/12/15 08:46:34;;;;;;;;;;;;;;;6.06;62.93;100541.44;5025618;28;19957;-84
2021/12/15 08:49:00;;;;;;;;;;;;;;;6.23;62.12;100546.09;5026685;28;19916;-81
2021/12/15 08:51:27;;;;;;;;;;;;;;;6.21;62.62;100545.16;5027113;28;20366;-82
2021/12/15 08:53:57;;;;;;;;;;;;;;;5.92;62.11;100530.69;5027091;28;19913;-82
2021/12/15 08:56:23;;;;;;;;;;;;;;;6.21;62.84;100543.44;5026582;28;19917;-82
2021/12/15 08:58:48;;;;;;;;;;;;;;;6.06;61.34;100541.44;5027225;28;19932;-82
2021/12/15 09:01:14;;;;;;;;;;;;;;;6.07;62.00;100542.31;5026386;28;19932;-85
2021/12/15 09:03:42;;;;;;;;;;;;;;;6.14;62.44;100536.31;5027209;28;19917;-83
2021/12/15 09:06:08;;;;;;;;;;;;;;;6.25;62.43;100534.75;5046683;28;19927;-83
2021/12/15 09:08:34;;;;;;;;;;;;;;;6.32;61.11;100542.72;5046588;28;19913;-83
2021/12/15 09:11:01;;;;;;;;;;;;;;;6.26;61.88;100531.28;5047067;28;20462;-83
2021/12/15 09:13:30;;;;;;;;;;;;;;;6.40;60.67;100534.13;5036910;28;19924;-83
2021/12/15 09:15:56;;;;;;;;;;;;;;;6.40;62.31;100530.63;5027207;28;19917;-81
2021/12/15 09:18:22;;;;;;;;;;;;;;;6.50;61.93;100531.66;5026146;28;19940;-84
2021/12/15 09:20:47;;;;;;;;;;;;;;;6.62;60.99;100534.44;5027039;28;19909;-83
2021/12/15 09:23:14;;;;;;;;;;;;;;;6.71;61.01;100536.31;5026158;28;20371;-83
2021/12/15 09:25:40;;;;;;;;;;;;;;;6.65;61.56;100533.63;5026381;28;19917;-83
2021/12/15 09:28:05;;;;;;;;;;;;;;;6.36;59.88;100536.69;5026176;28;19913;-82
2021/12/15 09:30:31;;;;;;;;;;;;;;;6.42;60.32;100529.78;5026061;28;19921;-84
2021/12/15 09:32:56;;;;;;;;;;;;;;;6.54;61.11;100534.34;5027307;28;20113;-82
2021/12/15 09:35:23;;;;;;;;;;;;;;;6.46;60.42;100538.59;5026473;28;20435;-81
2021/12/15 09:37:49;;;;;;;;;;;;;;;6.60;61.73;100534.41;5026728;28;20012;-83
2021/12/15 09:40:16;;;;;;;;;;;;;;;6.65;60.77;100536.25;5026865;28;20000;-82
2021/12/15 09:42:42;;;;;;;;;;;;;;;6.53;59.93;100523.81;5028935;28;20020;-83
2021/12/15 10:07:17;;;;;;;;;;;;;;;6.32;61.02;100529.63;5029295;28;19913;-82
2021/12/15 10:17:52;;;;;;;;;;;;;;;6.66;60.54;100524.88;5048246;28;19924;-83
2021/12/15 10:20:22;;;;;;;;;;;;;;;6.50;60.90;100531.66;5048966;28;19959;-82
2021/12/15 10:22:51;;;;;;;;;;;;;;;6.33;60.45;100534.00;5046739;28;19917;-82
2021/12/15 10:25:20;;;;;;;;;;;;;;;6.37;60.54;100527.97;5048505;28;19917;-84
2021/12/15 10:27:50;;;;;;;;;;;;;;;6.38;60.67;100532.31;5048080;28;19913;-83
2021/12/15 10:30:37;;;;;;;;;;;;;;;6.48;60.98;100531.63;5042614;28;19923;-81
2021/12/15 10:33:08;;;;;;;;;;;;;;;6.33;60.62;100529.63;5028936;28;19917;-82
2021/12/15 10:35:42;;;;;;;;;;;;;;;6.37;61.38;100527.97;5028416;28;20074;-82
2021/12/15 10:38:09;;;;;;;;;;;;;;;6.58;61.03;100528.28;5028781;28;19917;-82
2021/12/15 10:40:43;;;;;;;;;;;;;;;6.54;60.62;100530.84;5028813;28;19924;-81
2021/12/15 10:43:08;;;;;;;;;;;;;;;6.47;59.79;100521.97;5028505;28;20383;-82
2021/12/15 10:45:39;;;;;;;;;;;;;;;6.47;59.75;100531.59;5027335;28;20011;-82
2021/12/15 10:48:09;;;;;;;;;;;;;;;6.44;59.85;100521.94;5027288;28;19913;-82
2021/12/15 10:50:36;;;;;;;;;;;;;;;6.60;60.66;100526.56;5028399;28;19925;-81
2021/12/15 10:53:02;;;;;;;;;;;;;;;6.63;60.62;100528.34;5028605;28;19917;-82
2021/12/15 10:55:29;;;;;;;;;;;;;;;6.58;60.83;100530.00;5027651;28;20743;-82
2021/12/15 10:57:54;;;;;;;;;;;;;;;6.85;60.52;100533.91;5028367;28;20027;-81
2021/12/15 11:00:20;;;;;;;;;;;;;;;6.64;59.97;100527.47;5028252;28;20106;-81
2021/12/15 11:02:46;;;;;;;;;;;;;;;6.44;61.11;100528.09;5028764;28;19917;-82
2021/12/15 11:05:14;;;;;;;;;;;;;;;6.58;60.83;100533.53;5027172;28;20404;-81
2021/12/15 11:07:43;;;;;;;;;;;;;;;6.51;61.69;100526.41;5028555;28;19963;-82
2021/12/15 11:10:10;;;;;;;;;;;;;;;6.58;60.96;100525.66;5028368;28;19916;-82
2021/12/15 11:12:38;;;;;;;;;;;;;;;6.59;60.66;100527.41;5027156;28;19917;-81
2021/12/15 11:15:10;;;;;;;;;;;;;;;6.52;60.67;100519.44;5027979;28;19967;-81
2021/12/15 11:17:55;;;;;;;;;;;;;;;6.63;61.11;100521.34;5027520;28;20467;-83
2021/12/15 11:20:24;;;;;;;;;;;;;;;6.34;60.68;100513.06;5026691;28;19917;-80
2021/12/15 11:23:07;;;;;;;;;;;;;;;6.22;60.74;100516.38;5028283;28;19920;-80
2021/12/15 11:25:32;;;;;;;;;;;;;;;6.46;61.40;100517.63;5027108;28;19915;-81
2021/12/15 11:28:04;;;;;;;;;;;;;;;6.54;59.84;100520.34;5027847;28;20011;-81
2021/12/15 11:30:48;;;;;;;;;;;;;;;6.59;60.63;100516.91;5026973;28;19917;-81
2021/12/15 11:33:16;;;;;;;;;;;;;;;6.49;60.53;100516.75;5026909;28;19924;-85
2021/12/15 11:36:05;;;;;;;;;;;;;;;6.64;60.93;100519.59;5027728;28;19921;-81
2021/12/15 11:38:32;;;;;;;;;;;;;;;6.33;60.99;100513.03;5021378;28;19974;-82
2021/12/15 11:40:58;;;;;;;;;;;;;;;6.49;60.25;100514.13;5027010;28;19921;-82
2021/12/15 11:43:26;;;;;;;;;;;;;;;6.25;60.84;100511.16;5027098;28;19919;-82
2021/12/15 11:45:52;;;;;;;;;;;;;;;6.18;62.01;100518.91;5026747;28;20288;-81
2021/12/15 11:48:19;;;;;;;;;;;;;;;6.16;61.40;100505.78;5027379;28;19975;-81
2021/12/15 11:50:46;;;;;;;;;;;;;;;6.35;61.84;100506.06;5027006;28;20383;-82
2021/12/15 11:53:13;;;;;;;;;;;;;;;6.33;61.36;100513.03;5027650;28;19917;-81
2021/12/15 11:55:38;;;;;;;;;;;;;;;6.33;61.90;100513.03;5026553;28;19924;-82
2021/12/15 11:58:04;;;;;;;;;;;;;;;6.09;61.23;100510.06;5026689;28;19925;-82
2021/12/15 12:00:29;;;;;;;;;;;;;;;6.08;61.37;100512.66;5027046;28;19984;-82
2021/12/15 12:02:56;;;;;;;;;;;;;;;6.18;62.19;100505.81;5026703;28;20350;-81
2021/12/15 12:05:32;;;;;;;;;;;;;;;6.03;61.82;100509.97;5027615;28;19913;-81
2021/12/15 12:07:59;;;;;;;;;;;;;;;6.09;61.55;100509.19;5026580;28;20383;-82
2021/12/15 12:10:43;;;;;;;;;;;;;;;5.99;61.83;100515.13;5026775;28;19963;-81
2021/12/15 12:13:13;;;;;;;;;;;;;;;6.15;61.75;100503.16;5026296;28;19921;-81
2021/12/15 12:15:40;;;;;;;;;;;;;;;6.14;61.59;100507.50;5027149;28;19921;-82
2021/12/15 12:18:08;;;;;;;;;;;;;;;6.02;61.35;100494.22;5026432;28;20545;-82
2021/12/15 12:20:36;;;;;;;;;;;;;;;6.16;61.42;100497.94;5026184;28;19948;-82
2021/12/15 12:23:03;;;;;;;;;;;;;;;6.14;61.92;100499.66;5027062;28;19913;-82
2021/12/15 12:25:30;;;;;;;;;;;;;;;6.02;61.47;100492.47;5025718;28;19912;-82
2021/12/15 12:27:56;;;;;;;;;;;;;;;5.98;61.19;100495.91;5026521;28;19917;-82
2021/12/15 12:30:30;;;;;;;;;;;;;;;6.06;61.40;100490.81;5026794;28;20383;-82
2021/12/15 12:32:56;;;;;;;;;;;;;;;5.90;60.96;100497.47;5026647;28;19920;-83
2021/12/15 12:35:27;;;;;;;;;;;;;;;5.95;61.77;100482.75;5026656;28;19913;-82
2021/12/15 12:37:53;;;;;;;;;;;;;;;5.94;60.81;100482.72;5027047;28;19917;-82
2021/12/15 12:40:24;;;;;;;;;;;;;;;5.88;61.29;100467.78;5029171;28;19917;-82
2021/12/15 12:42:49;;;;;;;;;;;;;;;5.77;61.73;100471.94;5032261;28;19920;-82
2021/12/15 12:45:26;;;;;;;;;;;;;;;6.06;61.04;100481.19;5043250;28;20364;-83
2021/12/15 12:48:06;;;;;;;;;;;;;;;6.12;61.32;100482.13;5047251;28;19920;-83
2021/12/15 13:01:13;;;;;;;;;;;;;;;6.29;61.24;100485.91;5024109;28;19975;-81
2021/12/15 13:03:45;;;;;;;;;;;;;;;6.27;59.98;100480.66;5027295;28;19921;-81
2021/12/15 13:06:10;;;;;;;;;;;;;;;6.24;60.61;100480.59;5026255;28;19924;-82
2021/12/15 13:08:41;;;;;;;;;;;;;;;6.36;60.92;100479.88;5026298;28;19917;-81
2021/12/15 13:11:10;;;;;;;;;;;;;;;6.19;59.92;100484.88;5026310;28;19968;-82
2021/12/15 13:13:58;;;;;;;;;;;;;;;6.23;60.37;100481.44;5026520;28;19925;-82
2021/12/15 13:16:27;;;;;;;;;;;;;;;6.49;59.64;100480.97;5022434;28;19995;-82
2021/12/15 13:18:55;;;;;;;;;;;;;;;6.29;60.39;100483.28;5031588;28;20362;-82
2021/12/15 13:21:38;;;;;;;;;;;;;;;6.30;59.79;100474.56;5035844;28;20413;-82
2021/12/15 13:24:08;;;;;;;;;;;;;;;6.32;60.65;100482.44;5050368;28;19947;-80
2021/12/15 13:29:52;;;;;;;;;;;;;;;6.04;59.98;100487.25;5038121;28;19940;-83
2021/12/15 13:32:18;;;;;;;;;;;;;;;6.35;59.89;100486.00;5029874;28;19913;-83
2021/12/15 13:34:46;;;;;;;;;;;;;;;6.18;59.64;100485.75;5029942;28;19920;-83
2021/12/15 13:37:31;;;;;;;;;;;;;;;6.12;59.52;100480.41;5029906;28;20569;-83
2021/12/15 13:39:56;;;;;;;;;;;;;;;6.01;60.09;100484.59;5029298;28;20268;-83
2021/12/15 13:42:53;;;;;;;;;;;;;;;6.00;60.17;100485.47;5027338;28;19982;-85
2021/12/15 13:45:26;;;;;;;;;;;;;;;5.97;59.68;100485.41;5040596;28;19921;-83
2021/12/15 13:47:52;;;;;;;;;;;;;;;5.95;59.66;100489.69;5029870;28;19917;-83
2021/12/15 13:50:21;;;;;;;;;;;;;;;6.06;59.70;100491.66;5029422;28;19913;-82
2021/12/15 13:52:52;;;;;;;;;;;;;;;6.05;59.00;100489.03;5029745;28;20382;-82
2021/12/15 13:55:28;;;;;;;;;;;;;;;5.93;59.50;100487.03;5029515;28;19917;-83
2021/12/15 13:58:03;;;;;;;;;;;;;;;5.88;60.01;100486.09;5029155;28;19913;-83
2021/12/15 14:00:28;;;;;;;;;;;;;;;5.86;60.07;100486.06;5028937;28;19924;-81
2021/12/15 14:03:00;;;;;;;;;;;;;;;5.96;59.55;100502.81;5030194;28;19913;-83
2021/12/15 14:05:28;;;;;;;;;;;;;;;6.11;59.71;100501.34;5033579;28;20393;-82
2021/12/15 14:08:05;;;;;;;;;;;;;;;5.97;58.71;100501.13;5037742;28;20391;-84
2021/12/15 14:10:30;;;;;;;;;;;;;;;6.02;58.48;100507.31;5032168;28;19917;-82
2021/12/15 14:12:58;;;;;;;;;;;;;;;5.76;58.92;100512.06;5028702;28;19921;-83
2021/12/15 14:15:35;;;;;;;;;;;;;;;5.84;58.84;100516.59;5029602;28;20400;-82
2021/12/15 14:18:04;;;;;;;;;;;;;;;5.82;59.17;100513.06;5028904;28;20303;-83
2021/12/15 14:20:30;;;;;;;;;;;;;;;5.98;59.25;100515.97;5029661;28;19917;-83
2021/12/15 14:22:57;;;;;;;;;;;;;;;5.82;59.56;100523.53;5029405;28;20598;-82
2021/12/15 14:25:23;;;;;;;;;;;;;;;6.01;59.28;100518.63;5029408;28;19939;-82
2021/12/15 14:27:48;;;;;;;;;;;;;;;6.05;58.94;100526.56;5029668;28;19917;-81